sensor_id;sensor_type;location;lat;lon;timestamp;temperature;humidity
63445;DHT22;49573;47.682;9.170;2023-04-15T00:02:23;4.50;74.10
63445;DHT22;49573;47.682;9.170;2023-04-15T00:05:10;4.50;74.40
63445;DHT22;49573;47.682;9.170;2023-04-15T00:07:56;4.50;74.20
63445;DHT22;49573;47.682;9.170;2023-04-15T00:10:42;4.50;74.30
63445;DHT22;49573;47.682;9.170;2023-04-15T00:13:30;4.40;74.90
63445;DHT22;49573;47.682;9.170;2023-04-15T00:16:16;4.30;74.80
63445;DHT22;49573;47.682;9.170;2023-04-15T00:19:02;4.30;74.70
63445;DHT22;49573;47.682;9.170;2023-04-15T00:21:48;4.30;74.90
63445;DHT22;49573;47.682;9.170;2023-04-15T00:24:34;4.20;74.90
63445;DHT22;49573;47.682;9.170;2023-04-15T00:27:20;4.20;74.90
63445;DHT22;49573;47.682;9.170;2023-04-15T00:30:08;4.20;75.00
63445;DHT22;49573;47.682;9.170;2023-04-15T00:32:54;4.10;75.80
63445;DHT22;49573;47.682;9.170;2023-04-15T00:35:40;4.10;75.50
63445;DHT22;49573;47.682;9.170;2023-04-15T00:38:26;4.10;75.60
63445;DHT22;49573;47.682;9.170;2023-04-15T00:41:12;4.00;75.30
63445;DHT22;49573;47.682;9.170;2023-04-15T00:43:59;4.00;75.50
63445;DHT22;49573;47.682;9.170;2023-04-15T00:46:47;3.90;75.30
63445;DHT22;49573;47.682;9.170;2023-04-15T00:49:35;4.00;75.60
63445;DHT22;49573;47.682;9.170;2023-04-15T00:52:21;3.90;75.80
63445;DHT22;49573;47.682;9.170;2023-04-15T00:55:08;3.80;76.10
63445;DHT22;49573;47.682;9.170;2023-04-15T00:57:55;3.80;76.00
63445;DHT22;49573;47.682;9.170;2023-04-15T01:00:42;3.80;75.70
63445;DHT22;49573;47.682;9.170;2023-04-15T01:03:29;3.80;75.80
63445;DHT22;49573;47.682;9.170;2023-04-15T01:06:16;3.80;76.10
63445;DHT22;49573;47.682;9.170;2023-04-15T01:09:02;3.70;76.30
63445;DHT22;49573;47.682;9.170;2023-04-15T01:11:48;3.70;76.30
63445;DHT22;49573;47.682;9.170;2023-04-15T01:14:34;3.60;76.40
63445;DHT22;49573;47.682;9.170;2023-04-15T01:17:21;3.60;76.30
63445;DHT22;49573;47.682;9.170;2023-04-15T01:20:09;3.60;76.10
63445;DHT22;49573;47.682;9.170;2023-04-15T01:22:56;3.50;76.40
63445;DHT22;49573;47.682;9.170;2023-04-15T01:28:30;3.50;76.40
63445;DHT22;49573;47.682;9.170;2023-04-15T01:31:16;3.50;77.10
63445;DHT22;49573;47.682;9.170;2023-04-15T01:34:02;3.50;76.90
63445;DHT22;49573;47.682;9.170;2023-04-15T01:36:48;3.30;77.50
63445;DHT22;49573;47.682;9.170;2023-04-15T01:39:35;3.30;78.40
63445;DHT22;49573;47.682;9.170;2023-04-15T01:42:22;3.30;78.40
63445;DHT22;49573;47.682;9.170;2023-04-15T01:45:09;3.30;77.90
63445;DHT22;49573;47.682;9.170;2023-04-15T01:47:55;3.30;77.10
63445;DHT22;49573;47.682;9.170;2023-04-15T01:50:41;3.30;77.00
63445;DHT22;49573;47.682;9.170;2023-04-15T01:53:28;3.30;77.50
63445;DHT22;49573;47.682;9.170;2023-04-15T01:56:14;3.20;78.50
63445;DHT22;49573;47.682;9.170;2023-04-15T01:59:02;3.20;78.90
63445;DHT22;49573;47.682;9.170;2023-04-15T02:01:48;3.20;78.40
63445;DHT22;49573;47.682;9.170;2023-04-15T02:04:34;3.20;78.10
63445;DHT22;49573;47.682;9.170;2023-04-15T02:07:20;3.10;77.90
63445;DHT22;49573;47.682;9.170;2023-04-15T02:10:07;3.10;77.90
63445;DHT22;49573;47.682;9.170;2023-04-15T02:12:54;3.00;78.20
63445;DHT22;49573;47.682;9.170;2023-04-15T02:15:46;3.00;78.20
63445;DHT22;49573;47.682;9.170;2023-04-15T02:18:32;3.00;78.20
63445;DHT22;49573;47.682;9.170;2023-04-15T02:21:18;3.00;77.90
63445;DHT22;49573;47.682;9.170;2023-04-15T02:24:04;3.00;78.10
63445;DHT22;49573;47.682;9.170;2023-04-15T02:26:51;3.00;78.00
63445;DHT22;49573;47.682;9.170;2023-04-15T02:29:37;2.90;77.90
63445;DHT22;49573;47.682;9.170;2023-04-15T02:32:24;2.90;78.00
63445;DHT22;49573;47.682;9.170;2023-04-15T02:35:10;2.90;77.80
63445;DHT22;49573;47.682;9.170;2023-04-15T02:37:57;2.80;77.90
63445;DHT22;49573;47.682;9.170;2023-04-15T02:40:43;2.80;78.30
63445;DHT22;49573;47.682;9.170;2023-04-15T02:43:29;2.70;78.40
63445;DHT22;49573;47.682;9.170;2023-04-15T02:46:15;2.70;78.50
63445;DHT22;49573;47.682;9.170;2023-04-15T02:49:02;2.70;78.50
63445;DHT22;49573;47.682;9.170;2023-04-15T02:51:48;2.70;78.50
63445;DHT22;49573;47.682;9.170;2023-04-15T02:54:36;2.70;78.60
63445;DHT22;49573;47.682;9.170;2023-04-15T02:57:22;2.60;78.60
63445;DHT22;49573;47.682;9.170;2023-04-15T03:00:08;2.60;78.50
63445;DHT22;49573;47.682;9.170;2023-04-15T03:02:57;2.60;78.60
63445;DHT22;49573;47.682;9.170;2023-04-15T03:05:45;2.60;78.70
63445;DHT22;49573;47.682;9.170;2023-04-15T03:08:31;2.60;78.60
63445;DHT22;49573;47.682;9.170;2023-04-15T03:11:18;2.60;78.70
63445;DHT22;49573;47.682;9.170;2023-04-15T03:14:04;2.60;79.00
63445;DHT22;49573;47.682;9.170;2023-04-15T03:16:50;2.50;79.00
63445;DHT22;49573;47.682;9.170;2023-04-15T03:19:36;2.50;79.20
63445;DHT22;49573;47.682;9.170;2023-04-15T13:19:37;15.10;43.60
63445;DHT22;49573;47.682;9.170;2023-04-15T13:22:23;14.70;42.60
63445;DHT22;49573;47.682;9.170;2023-04-15T13:25:09;14.30;43.90
63445;DHT22;49573;47.682;9.170;2023-04-15T13:27:57;14.80;44.70
63445;DHT22;49573;47.682;9.170;2023-04-15T13:33:30;15.10;45.30
63445;DHT22;49573;47.682;9.170;2023-04-15T13:36:16;14.80;45.40
63445;DHT22;49573;47.682;9.170;2023-04-15T13:39:02;14.80;46.00
63445;DHT22;49573;47.682;9.170;2023-04-15T14:48:32;15.30;42.70
63445;DHT22;49573;47.682;9.170;2023-04-15T14:51:20;14.50;45.10
63445;DHT22;49573;47.682;9.170;2023-04-15T14:54:06;14.80;45.10
63445;DHT22;49573;47.682;9.170;2023-04-15T14:56:52;14.80;46.70
63445;DHT22;49573;47.682;9.170;2023-04-15T14:59:38;14.50;46.80
63445;DHT22;49573;47.682;9.170;2023-04-15T15:02:24;14.60;47.20
63445;DHT22;49573;47.682;9.170;2023-04-15T15:05:10;14.30;47.20
63445;DHT22;49573;47.682;9.170;2023-04-15T15:07:58;14.30;47.20
63445;DHT22;49573;47.682;9.170;2023-04-15T15:10:44;14.00;47.80
63445;DHT22;49573;47.682;9.170;2023-04-15T15:13:30;13.80;48.30
63445;DHT22;49573;47.682;9.170;2023-04-15T15:16:16;13.90;48.60
63445;DHT22;49573;47.682;9.170;2023-04-15T15:19:02;13.60;49.90
63445;DHT22;49573;47.682;9.170;2023-04-15T15:21:49;13.20;52.10
63445;DHT22;49573;47.682;9.170;2023-04-15T15:24:36;13.30;52.80
63445;DHT22;49573;47.682;9.170;2023-04-15T15:27:22;13.00;52.00
63445;DHT22;49573;47.682;9.170;2023-04-15T15:30:10;12.80;51.60
63445;DHT22;49573;47.682;9.170;2023-04-15T15:32:56;12.60;52.70
63445;DHT22;49573;47.682;9.170;2023-04-15T15:35:42;12.60;53.10
63445;DHT22;49573;47.682;9.170;2023-04-15T15:38:28;12.60;54.40
63445;DHT22;49573;47.682;9.170;2023-04-15T15:41:16;12.60;55.50
63445;DHT22;49573;47.682;9.170;2023-04-15T15:44:02;12.50;57.00
63445;DHT22;49573;47.682;9.170;2023-04-15T15:46:49;12.30;58.40
63445;DHT22;49573;47.682;9.170;2023-04-15T15:49:35;12.60;58.20
63445;DHT22;49573;47.682;9.170;2023-04-15T15:57:55;13.40;56.10
63445;DHT22;49573;47.682;9.170;2023-04-15T16:00:41;13.10;57.40
63445;DHT22;49573;47.682;9.170;2023-04-15T16:03:28;12.70;58.30
63445;DHT22;49573;47.682;9.170;2023-04-15T16:06:14;12.20;58.70
63445;DHT22;49573;47.682;9.170;2023-04-15T16:09:00;12.20;58.70
63445;DHT22;49573;47.682;9.170;2023-04-15T16:11:46;12.20;58.90
63445;DHT22;49573;47.682;9.170;2023-04-15T16:14:33;11.90;59.00
63445;DHT22;49573;47.682;9.170;2023-04-15T16:17:19;11.80;59.60
63445;DHT22;49573;47.682;9.170;2023-04-15T16:20:06;11.70;60.70
63445;DHT22;49573;47.682;9.170;2023-04-15T16:22:52;11.50;61.50
63445;DHT22;49573;47.682;9.170;2023-04-15T16:25:40;11.60;61.60
63445;DHT22;49573;47.682;9.170;2023-04-15T16:28:26;11.30;62.90
63445;DHT22;49573;47.682;9.170;2023-04-15T16:31:13;11.30;63.00
63445;DHT22;49573;47.682;9.170;2023-04-15T16:34:00;11.40;62.40
63445;DHT22;49573;47.682;9.170;2023-04-15T16:36:46;11.20;62.50
63445;DHT22;49573;47.682;9.170;2023-04-15T16:39:32;11.30;62.30
63445;DHT22;49573;47.682;9.170;2023-04-15T16:42:18;11.10;63.20
63445;DHT22;49573;47.682;9.170;2023-04-15T16:45:05;11.00;63.40
63445;DHT22;49573;47.682;9.170;2023-04-15T16:47:52;11.00;63.70
63445;DHT22;49573;47.682;9.170;2023-04-15T16:50:39;11.00;63.70
63445;DHT22;49573;47.682;9.170;2023-04-15T16:53:25;10.90;64.20
63445;DHT22;49573;47.682;9.170;2023-04-15T16:56:11;10.90;64.20
63445;DHT22;49573;47.682;9.170;2023-04-15T16:58:57;10.90;64.30
63445;DHT22;49573;47.682;9.170;2023-04-15T17:01:43;10.80;64.80
63445;DHT22;49573;47.682;9.170;2023-04-15T17:04:30;10.90;65.00
63445;DHT22;49573;47.682;9.170;2023-04-15T17:07:16;11.00;64.10
63445;DHT22;49573;47.682;9.170;2023-04-15T17:10:03;11.00;65.80
63445;DHT22;49573;47.682;9.170;2023-04-15T17:12:49;11.20;67.60
63445;DHT22;49573;47.682;9.170;2023-04-15T17:15:36;11.20;69.90
63445;DHT22;49573;47.682;9.170;2023-04-15T17:18:22;11.20;68.90
63445;DHT22;49573;47.682;9.170;2023-04-15T17:21:10;11.20;69.20
63445;DHT22;49573;47.682;9.170;2023-04-15T17:23:56;11.20;69.50
63445;DHT22;49573;47.682;9.170;2023-04-15T17:26:42;11.10;70.30
63445;DHT22;49573;47.682;9.170;2023-04-15T17:29:28;11.10;70.70
63445;DHT22;49573;47.682;9.170;2023-04-15T17:32:14;11.10;70.00
63445;DHT22;49573;47.682;9.170;2023-04-15T17:35:00;11.00;69.30
63445;DHT22;49573;47.682;9.170;2023-04-15T17:37:51;11.00;69.70
63445;DHT22;49573;47.682;9.170;2023-04-15T17:40:37;11.00;69.70
63445;DHT22;49573;47.682;9.170;2023-04-15T17:43:23;10.90;69.20
63445;DHT22;49573;47.682;9.170;2023-04-15T17:46:09;10.90;69.40
63445;DHT22;49573;47.682;9.170;2023-04-15T17:48:57;10.80;69.70
63445;DHT22;49573;47.682;9.170;2023-04-15T17:51:43;10.80;69.30
63445;DHT22;49573;47.682;9.170;2023-04-15T17:54:32;10.80;68.60
63445;DHT22;49573;47.682;9.170;2023-04-15T17:57:18;10.80;67.90
63445;DHT22;49573;47.682;9.170;2023-04-15T18:00:06;10.70;69.80
63445;DHT22;49573;47.682;9.170;2023-04-15T18:02:53;10.50;68.70
63445;DHT22;49573;47.682;9.170;2023-04-15T18:05:39;10.50;68.40
63445;DHT22;49573;47.682;9.170;2023-04-15T18:08:26;10.40;68.90
63445;DHT22;49573;47.682;9.170;2023-04-15T18:11:13;10.40;68.60
63445;DHT22;49573;47.682;9.170;2023-04-15T18:14:01;10.30;69.40
63445;DHT22;49573;47.682;9.170;2023-04-15T18:16:48;10.30;69.10
63445;DHT22;49573;47.682;9.170;2023-04-15T18:19:34;9.90;69.40
63445;DHT22;49573;47.682;9.170;2023-04-15T18:22:20;9.90;69.90
63445;DHT22;49573;47.682;9.170;2023-04-15T18:25:07;9.80;69.20
63445;DHT22;49573;47.682;9.170;2023-04-15T18:27:55;9.80;69.40
63445;DHT22;49573;47.682;9.170;2023-04-15T18:30:41;9.70;69.40
63445;DHT22;49573;47.682;9.170;2023-04-15T18:33:27;9.70;69.70
63445;DHT22;49573;47.682;9.170;2023-04-15T18:36:13;9.70;71.10
63445;DHT22;49573;47.682;9.170;2023-04-15T18:38:59;9.70;71.30
63445;DHT22;49573;47.682;9.170;2023-04-15T18:41:45;9.60;72.50
63445;DHT22;49573;47.682;9.170;2023-04-15T18:44:32;9.70;72.40
63445;DHT22;49573;47.682;9.170;2023-04-15T18:47:18;9.60;74.00
63445;DHT22;49573;47.682;9.170;2023-04-15T18:50:07;9.50;74.00
63445;DHT22;49573;47.682;9.170;2023-04-15T18:52:53;9.60;73.10
63445;DHT22;49573;47.682;9.170;2023-04-15T18:55:39;9.70;73.00
63445;DHT22;49573;47.682;9.170;2023-04-15T18:58:26;9.70;75.90
63445;DHT22;49573;47.682;9.170;2023-04-15T19:01:13;9.70;76.60
63445;DHT22;49573;47.682;9.170;2023-04-15T19:03:59;10.20;75.00
63445;DHT22;49573;47.682;9.170;2023-04-15T19:06:46;9.70;75.90
63445;DHT22;49573;47.682;9.170;2023-04-15T19:09:32;10.20;75.40
63445;DHT22;49573;47.682;9.170;2023-04-15T19:12:18;9.70;76.70
63445;DHT22;49573;47.682;9.170;2023-04-15T19:15:05;9.60;76.90
63445;DHT22;49573;47.682;9.170;2023-04-15T19:17:53;9.60;77.10
63445;DHT22;49573;47.682;9.170;2023-04-15T19:20:39;9.60;77.10
63445;DHT22;49573;47.682;9.170;2023-04-15T19:23:25;9.60;77.90
63445;DHT22;49573;47.682;9.170;2023-04-15T19:26:11;9.70;77.80
63445;DHT22;49573;47.682;9.170;2023-04-15T19:28:58;9.70;77.50
63445;DHT22;49573;47.682;9.170;2023-04-15T19:31:44;9.70;77.40
63445;DHT22;49573;47.682;9.170;2023-04-15T19:48:24;10.10;74.70
63445;DHT22;49573;47.682;9.170;2023-04-15T19:51:12;9.80;75.20
63445;DHT22;49573;47.682;9.170;2023-04-15T19:53:58;9.20;77.10
